Time;durP1;ratioP1;P1;durP2;ratioP2;P2;SDS_P1;SDS_P2;PMS_P1;PMS_P2;Temp;Humidity;BMP_temperature;BMP_pressure;BME280_temperature;BME280_humidity;BME280_pressure;Samples;Min_cycle;Max_cycle;Signal;HPM_P1;HPM_P2
2022/06/04 00:00:24;;;;;;;20.05;12.82;;;6.70;99.90;;;;;;5034844;28;20035;-71
2022/06/04 00:02:51;;;;;;;21.13;13.27;;;6.60;99.90;;;;;;5034021;28;20029;-71
2022/06/04 00:05:20;;;;;;;20.60;12.32;;;6.60;99.90;;;;;;5034336;28;20033;-70
2022/06/04 00:07:47;;;;;;;19.98;12.73;;;6.60;99.90;;;;;;5033996;28;20570;-71
2022/06/04 00:15:50;;;;;;;21.02;12.77;;;6.50;99.90;;;;;;5034509;28;20033;-71
2022/06/04 00:18:18;;;;;;;25.25;14.23;;;6.50;99.90;;;;;;5033990;28;20113;-71
2022/06/04 00:20:44;;;;;;;24.48;13.93;;;6.60;99.90;;;;;;5033875;28;20029;-71
2022/06/04 00:23:11;;;;;;;20.45;12.77;;;6.60;99.90;;;;;;5034329;28;20045;-71
2022/06/04 00:25:39;;;;;;;23.65;12.70;;;6.70;99.90;;;;;;5034071;28;20026;-71
2022/06/04 00:28:08;;;;;;;19.55;13.10;;;6.60;99.90;;;;;;5033900;28;20032;-71
2022/06/04 00:30:34;;;;;;;17.30;12.57;;;6.70;99.90;;;;;;5033773;28;20033;-71
2022/06/04 00:32:59;;;;;;;20.73;12.82;;;6.70;99.90;;;;;;5033709;28;20492;-71
2022/06/04 00:35:25;;;;;;;20.70;14.23;;;6.80;99.90;;;;;;5033591;28;20104;-71
2022/06/04 00:37:51;;;;;;;24.95;13.50;;;6.90;99.90;;;;;;5033971;28;20383;-70
2022/06/04 00:40:41;;;;;;;22.38;14.00;;;7.00;99.90;;;;;;5033868;28;20381;-70
2022/06/04 00:43:06;;;;;;;20.90;13.57;;;7.10;99.90;;;;;;5033920;28;20083;-70
2022/06/04 00:45:32;;;;;;;19.27;13.30;;;7.10;99.90;;;;;;5033586;28;20413;-70
2022/06/04 00:47:59;;;;;;;20.02;13.32;;;7.20;99.90;;;;;;5033541;28;20033;-70
2022/06/04 00:50:27;;;;;;;21.45;13.18;;;7.20;99.90;;;;;;5033822;28;20520;-70
2022/06/04 00:52:55;;;;;;;27.30;14.23;;;7.10;99.90;;;;;;5033176;28;20072;-70
2022/06/04 00:55:21;;;;;;;22.05;14.00;;;7.10;99.90;;;;;;5033546;28;20024;-70
2022/06/04 00:58:13;;;;;;;21.50;12.60;;;7.10;99.90;;;;;;5033372;28;20021;-70
2022/06/04 01:00:49;;;;;;;19.65;12.65;;;7.20;99.90;;;;;;5002713;28;20091;-70
2022/06/04 01:03:23;;;;;;;21.77;14.60;;;7.20;99.90;;;;;;5033606;28;20030;-70
2022/06/04 01:06:00;;;;;;;20.40;14.38;;;7.30;99.90;;;;;;5033522;28;20025;-70
2022/06/04 01:09:03;;;;;;;21.83;14.40;;;7.40;99.90;;;;;;5033519;28;20026;-70
2022/06/04 01:12:09;;;;;;;23.65;13.90;;;7.50;99.90;;;;;;5033207;28;20087;-70
2022/06/04 01:15:08;;;;;;;23.20;14.07;;;7.60;99.90;;;;;;5033386;28;20029;-70
2022/06/04 01:18:02;;;;;;;24.25;14.23;;;7.70;99.90;;;;;;5033494;28;20069;-70
2022/06/04 01:20:55;;;;;;;19.35;13.63;;;7.80;99.90;;;;;;5037395;28;20032;-70
2022/06/04 01:23:49;;;;;;;23.42;14.40;;;7.80;99.90;;;;;;5037230;28;20091;-70
2022/06/04 01:26:55;;;;;;;23.90;14.63;;;7.90;99.90;;;;;;5037753;28;20108;-70
2022/06/04 01:29:29;;;;;;;25.80;13.27;;;8.00;99.90;;;;;;5037247;28;20060;-70
2022/06/04 01:32:05;;;;;;;;;;;8.10;99.90;;;;;;5037721;28;20100;-70
2022/06/04 01:35:05;;;;;;;22.98;13.40;;;8.20;99.90;;;;;;5036915;28;19905;-70
2022/06/04 01:38:12;;;;;;;21.77;14.63;;;8.20;99.90;;;;;;5036526;28;20038;-70
2022/06/04 01:41:03;;;;;;;26.48;14.73;;;8.30;99.90;;;;;;5035417;28;20042;-71
2022/06/04 01:43:45;;;;;;;23.70;15.38;;;8.40;99.90;;;;;;5036951;28;20021;-70
2022/06/04 01:46:14;;;;;;;21.63;14.50;;;8.40;99.90;;;;;;5036623;28;20026;-70
2022/06/04 01:48:44;;;;;;;25.95;15.73;;;8.50;99.90;;;;;;5036801;28;20021;-70
2022/06/04 01:51:15;;;;;;;15.88;11.98;;;8.50;99.90;;;;;;5036998;28;20343;-70
2022/06/04 01:53:43;;;;;;;25.27;15.43;;;8.60;99.90;;;;;;5037120;28;20028;-70
2022/06/04 01:56:27;;;;;;;21.85;13.45;;;8.70;99.90;;;;;;5036629;28;20028;-70
2022/06/04 01:58:58;;;;;;;;;;;8.70;99.90;;;;;;5036867;28;20387;-70
2022/06/04 02:01:29;;;;;;;23.70;14.52;;;8.80;99.90;;;;;;5036567;28;20006;-70
2022/06/04 02:04:13;;;;;;;18.75;13.13;;;8.80;99.90;;;;;;5036575;28;20029;-70
2022/06/04 02:09:40;;;;;;;23.13;14.02;;;8.90;99.90;;;;;;5036335;28;20068;-70
2022/06/04 02:12:10;;;;;;;27.63;14.57;;;8.90;99.90;;;;;;5035956;28;20022;-70
2022/06/04 02:14:37;;;;;;;29.50;15.55;;;8.90;99.90;;;;;;5036448;28;20017;-70
2022/06/04 02:17:09;;;;;;;20.83;13.48;;;8.90;99.90;;;;;;5036101;28;20037;-70
2022/06/04 02:19:35;;;;;;;23.50;14.30;;;9.00;99.90;;;;;;5036439;28;20045;-70
2022/06/04 02:22:02;;;;;;;26.05;14.65;;;9.00;99.90;;;;;;5036369;28;20041;-70
2022/06/04 02:24:28;;;;;;;19.60;13.52;;;9.10;99.90;;;;;;5036654;28;20048;-70
2022/06/04 02:26:54;;;;;;;22.40;13.23;;;9.10;99.90;;;;;;5036244;28;20474;-70
2022/06/04 02:29:20;;;;;;;28.08;13.93;;;9.20;99.90;;;;;;5035881;28;20021;-70
2022/06/04 02:31:58;;;;;;;24.70;14.95;;;9.30;99.90;;;;;;5034705;28;20474;-70
2022/06/04 02:34:44;;;;;;;19.63;13.48;;;9.30;99.90;;;;;;5035792;28;20022;-70
2022/06/04 02:37:20;;;;;;;17.83;12.52;;;9.40;99.90;;;;;;5035300;28;20048;-70
2022/06/04 02:39:59;;;;;;;25.70;13.85;;;9.50;99.90;;;;;;5035988;28;20025;-70
2022/06/04 02:42:32;;;;;;;25.92;12.15;;;9.60;99.90;;;;;;5035801;28;20031;-70
2022/06/04 02:45:02;;;;;;;;;;;9.60;99.90;;;;;;5036219;28;20035;-70
2022/06/04 02:47:40;;;;;;;22.42;13.23;;;9.70;99.90;;;;;;5035179;28;19967;-70
2022/06/04 02:50:28;;;;;;;15.85;11.63;;;9.70;99.90;;;;;;5035809;28;20022;-70
2022/06/04 02:52:56;;;;;;;25.95;12.00;;;9.70;99.90;;;;;;5035435;28;20025;-70
2022/06/04 02:55:33;;;;;;;22.65;11.98;;;9.80;99.90;;;;;;5035466;28;20048;-70
2022/06/04 02:58:05;;;;;;;27.13;12.13;;;9.90;99.90;;;;;;5035455;28;20108;-70
2022/06/04 03:00:32;;;;;;;25.08;12.48;;;10.00;99.90;;;;;;5035815;28;20026;-70
2022/06/04 03:02:57;;;;;;;16.60;10.50;;;10.00;99.90;;;;;;5035183;28;20056;-70
2022/06/04 03:05:25;;;;;;;14.75;10.18;;;10.10;99.90;;;;;;5035582;28;20033;-70
2022/06/04 03:07:56;;;;;;;18.58;10.63;;;10.10;99.90;;;;;;5035357;28;20037;-70
2022/06/04 03:10:26;;;;;;;16.15;9.55;;;10.20;99.90;;;;;;5035110;28;20014;-70
2022/06/04 03:12:52;;;;;;;20.65;10.13;;;10.20;99.90;;;;;;5035353;28;20022;-70
2022/06/04 03:15:18;;;;;;;24.23;11.02;;;10.20;99.90;;;;;;5035003;28;20025;-70
2022/06/04 03:17:46;;;;;;;18.35;10.32;;;10.30;99.90;;;;;;5035118;28;20018;-70
2022/06/04 03:20:14;;;;;;;21.08;10.75;;;10.30;99.90;;;;;;5034837;28;20021;-70
2022/06/04 03:22:39;;;;;;;17.70;10.48;;;10.40;99.90;;;;;;5034736;28;20041;-70
2022/06/04 03:25:05;;;;;;;15.70;10.25;;;10.40;99.90;;;;;;5035372;28;20032;-70
2022/06/04 03:27:31;;;;;;;17.40;9.38;;;10.40;99.90;;;;;;5034992;28;20041;-70
2022/06/04 03:29:57;;;;;;;21.20;11.15;;;10.50;99.90;;;;;;5034594;28;20017;-70
2022/06/04 03:32:23;;;;;;;17.88;9.95;;;10.60;99.90;;;;;;5034652;28;20121;-70
2022/06/04 03:34:48;;;;;;;24.00;10.45;;;10.50;99.90;;;;;;5034807;28;20434;-70
2022/06/04 03:37:14;;;;;;;26.85;10.32;;;10.50;99.90;;;;;;5034712;28;20029;-70
2022/06/04 03:39:39;;;;;;;15.77;9.63;;;10.50;99.90;;;;;;5034765;28;20478;-70
2022/06/04 03:42:06;;;;;;;17.88;9.55;;;10.60;99.90;;;;;;5034352;28;20040;-70
2022/06/04 03:44:32;;;;;;;22.17;10.27;;;10.70;99.90;;;;;;5034568;28;20024;-70
2022/06/04 03:46:57;;;;;;;13.88;9.73;;;10.70;99.90;;;;;;5034465;28;20030;-70
2022/06/04 03:49:23;;;;;;;15.23;9.65;;;10.70;99.90;;;;;;5034348;28;20029;-70
2022/06/04 03:51:49;;;;;;;18.33;10.23;;;10.80;99.90;;;;;;5034575;28;20029;-70
2022/06/04 03:54:15;;;;;;;18.50;9.48;;;10.80;99.90;;;;;;5034562;28;20462;-70
2022/06/04 03:56:41;;;;;;;19.05;9.82;;;10.80;99.90;;;;;;5034223;28;20386;-70
2022/06/04 03:59:06;;;;;;;19.20;9.82;;;10.80;99.90;;;;;;5034213;28;20030;-70
2022/06/04 04:01:32;;;;;;;16.58;10.15;;;10.90;99.90;;;;;;5034647;28;20029;-70
2022/06/04 04:04:00;;;;;;;26.90;10.05;;;10.90;99.90;;;;;;5034099;28;20653;-70
2022/06/04 04:06:29;;;;;;;20.50;10.23;;;11.00;99.90;;;;;;5033966;28;20025;-70
2022/06/04 04:08:55;;;;;;;23.98;10.50;;;11.00;99.90;;;;;;5034157;28;20044;-70
2022/06/04 04:11:25;;;;;;;31.10;10.10;;;11.00;99.90;;;;;;5033903;28;20076;-70
2022/06/04 04:13:52;;;;;;;16.08;10.00;;;11.10;99.90;;;;;;5033954;28;20067;-70
2022/06/04 04:16:19;;;;;;;19.00;9.40;;;11.10;99.90;;;;;;5033854;28;20022;-70
2022/06/04 04:18:45;;;;;;;20.35;9.57;;;11.10;99.90;;;;;;5034139;28;20489;-69
2022/06/04 04:21:13;;;;;;;18.92;10.60;;;11.20;99.90;;;;;;5033651;28;20057;-70
2022/06/04 04:23:39;;;;;;;22.77;10.57;;;11.20;99.90;;;;;;5033748;28;20516;-70
2022/06/04 04:26:06;;;;;;;18.45;10.13;;;11.20;99.90;;;;;;5033771;28;20065;-70
2022/06/04 04:28:32;;;;;;;18.90;10.00;;;11.20;99.90;;;;;;5033577;28;20037;-70
2022/06/04 04:30:58;;;;;;;14.10;8.90;;;11.20;99.90;;;;;;5033528;28;20026;-70
2022/06/04 04:33:24;;;;;;;17.77;9.70;;;11.10;99.90;;;;;;5033728;28;20111;-70
2022/06/04 04:35:50;;;;;;;17.10;9.18;;;11.00;99.90;;;;;;5033832;28;20033;-70
2022/06/04 04:38:18;;;;;;;16.08;9.20;;;11.20;99.90;;;;;;5033616;28;20030;-70
2022/06/04 04:40:45;;;;;;;12.93;9.15;;;11.10;99.90;;;;;;5033498;28;20030;-70
2022/06/04 04:43:11;;;;;;;14.00;8.75;;;11.10;99.90;;;;;;5033714;28;20508;-71
2022/06/04 04:45:37;;;;;;;16.27;9.27;;;11.10;99.90;;;;;;5033835;28;20091;-70
2022/06/04 04:48:03;;;;;;;18.35;9.68;;;11.20;99.90;;;;;;5033947;28;20029;-70
2022/06/04 04:50:35;;;;;;;16.77;9.25;;;11.30;99.90;;;;;;5033438;28;20064;-70
2022/06/04 04:53:04;;;;;;;19.45;10.73;;;11.30;99.90;;;;;;5032695;28;20049;-70
2022/06/04 04:55:30;;;;;;;16.02;9.90;;;11.30;99.90;;;;;;5033253;28;20381;-71
2022/06/04 04:57:56;;;;;;;15.93;9.77;;;11.40;99.90;;;;;;5033511;28;20033;-70
2022/06/04 05:00:21;;;;;;;15.27;9.88;;;11.40;99.90;;;;;;5033571;28;20099;-70
2022/06/04 05:02:47;;;;;;;18.08;9.40;;;11.40;99.90;;;;;;5033289;28;20037;-70
2022/06/04 05:05:13;;;;;;;19.98;11.02;;;11.50;99.90;;;;;;5033879;28;20464;-70
2022/06/04 05:07:40;;;;;;;17.20;9.75;;;11.50;99.90;;;;;;5033158;28;20025;-70
2022/06/04 05:10:07;;;;;;;18.85;9.50;;;11.50;99.90;;;;;;5033458;28;20021;-70
2022/06/04 05:12:33;;;;;;;28.42;10.65;;;11.50;99.90;;;;;;5032952;28;20025;-70
2022/06/04 05:14:58;;;;;;;15.80;9.18;;;11.50;99.90;;;;;;5033415;28;20022;-70
2022/06/04 05:17:24;;;;;;;17.52;10.65;;;11.50;99.90;;;;;;5033013;28;20103;-70
2022/06/04 05:19:50;;;;;;;19.88;9.73;;;11.50;99.90;;;;;;5033200;28;20045;-71
2022/06/04 05:22:15;;;;;;;18.38;9.82;;;11.60;99.90;;;;;;5033119;28;20041;-71
2022/06/04 05:24:43;;;;;;;16.88;8.93;;;11.50;99.90;;;;;;5033060;28;20028;-71
2022/06/04 05:27:09;;;;;;;17.55;8.30;;;11.60;99.90;;;;;;5033024;28;20385;-71
2022/06/04 05:29:37;;;;;;;20.10;9.43;;;11.70;99.90;;;;;;5033157;28;20127;-70
2022/06/04 05:32:04;;;;;;;16.73;10.20;;;11.80;99.90;;;;;;5033417;28;20378;-71
2022/06/04 05:34:31;;;;;;;15.68;9.43;;;11.80;99.90;;;;;;5033278;28;20028;-71
2022/06/04 05:36:57;;;;;;;17.20;9.52;;;11.80;99.90;;;;;;5033216;28;20017;-71
2022/06/04 05:39:23;;;;;;;14.65;9.52;;;11.80;99.90;;;;;;5032918;28;20034;-71
2022/06/04 05:41:50;;;;;;;18.40;10.52;;;11.90;99.90;;;;;;5032906;28;20025;-71
2022/06/04 05:44:15;;;;;;;18.70;10.45;;;12.00;99.90;;;;;;5032899;28;20064;-71
2022/06/04 05:46:42;;;;;;;17.13;9.52;;;11.90;99.90;;;;;;5033042;28;20029;-71
2022/06/04 05:49:10;;;;;;;17.42;9.57;;;12.00;99.90;;;;;;5032728;28;20109;-71
2022/06/04 05:51:37;;;;;;;15.00;9.60;;;12.10;99.90;;;;;;5032780;28;20022;-71
2022/06/04 05:54:02;;;;;;;20.63;9.40;;;12.10;99.90;;;;;;5032806;28;20061;-71
2022/06/04 05:56:31;;;;;;;16.45;9.00;;;12.10;99.90;;;;;;5033045;28;20032;-71
2022/06/04 05:59:08;;;;;;;16.88;8.57;;;12.20;99.90;;;;;;5033077;28;20470;-71
2022/06/04 06:01:35;;;;;;;24.20;9.93;;;12.30;99.90;;;;;;5032798;28;20473;-71
2022/06/04 06:04:01;;;;;;;17.13;9.13;;;12.40;99.90;;;;;;5032829;28;20040;-71
2022/06/04 06:06:29;;;;;;;12.57;8.23;;;12.40;99.90;;;;;;5036383;28;20390;-71
2022/06/04 06:08:56;;;;;;;16.92;9.10;;;12.50;99.90;;;;;;5035984;28;20029;-71
2022/06/04 06:11:22;;;;;;;25.10;9.38;;;12.50;99.90;;;;;;5036111;28;20029;-71
2022/06/04 06:13:50;;;;;;;11.70;7.70;;;12.60;99.90;;;;;;5036389;28;20032;-71
2022/06/04 06:16:27;;;;;;;22.27;8.48;;;12.70;99.90;;;;;;5036076;28;20052;-71
2022/06/04 06:18:54;;;;;;;14.20;7.53;;;12.80;99.90;;;;;;5036165;28;20034;-71
2022/06/04 06:23:54;;;;;;;15.65;6.97;;;12.80;99.90;;;;;;5073470;28;20045;-67
2022/06/04 06:26:22;;;;;;;12.13;8.25;;;12.80;99.90;;;;;;5076155;28;20032;-68
2022/06/04 06:28:48;;;;;;;17.48;8.02;;;12.90;99.90;;;;;;5076246;28;20028;-68
2022/06/04 06:31:17;;;;;;;15.90;9.43;;;12.90;99.90;;;;;;5076061;28;20030;-68
2022/06/04 06:33:43;;;;;;;15.10;7.85;;;12.90;99.90;;;;;;5055839;28;20075;-67
2022/06/04 06:36:11;;;;;;;14.75;7.70;;;13.00;99.90;;;;;;5055659;28;20017;-67
2022/06/04 06:38:37;;;;;;;14.48;8.10;;;13.00;99.90;;;;;;5055679;28;20461;-68
2022/06/04 06:41:04;;;;;;;30.10;8.23;;;13.00;99.90;;;;;;5055561;28;20102;-68
2022/06/04 06:44:04;;;;;;;14.20;7.25;;;13.10;99.90;;;;;;5055454;28;20036;-68
2022/06/04 06:46:27;;;;;;;25.05;8.52;;;13.10;99.90;;;;;;5053423;28;20094;-68
2022/06/04 06:48:57;;;;;;;23.08;7.90;;;13.00;99.90;;;;;;5055314;28;20071;-68
2022/06/04 06:51:32;;;;;;;12.68;6.85;;;13.10;99.90;;;;;;5055685;28;20067;-68
2022/06/04 06:53:58;;;;;;;16.15;7.60;;;13.00;99.90;;;;;;5055547;28;20607;-68
2022/06/04 06:56:29;;;;;;;23.13;7.57;;;13.10;99.90;;;;;;5055397;28;20104;-69
2022/06/04 06:58:56;;;;;;;16.30;6.78;;;13.10;99.90;;;;;;5055312;28;20108;-68
2022/06/04 07:01:24;;;;;;;19.30;7.55;;;13.10;99.90;;;;;;5055368;28;20123;-68
2022/06/04 07:03:50;;;;;;;19.88;7.03;;;13.20;99.90;;;;;;5054913;28;20032;-68
2022/06/04 07:06:32;;;;;;;15.40;6.88;;;13.20;99.90;;;;;;5055123;28;20500;-68
2022/06/04 07:08:59;;;;;;;13.98;6.85;;;13.30;99.90;;;;;;5055276;28;20036;-68
2022/06/04 07:11:25;;;;;;;12.25;6.07;;;13.30;99.90;;;;;;5054803;28;20101;-67
2022/06/04 07:13:51;;;;;;;16.90;7.13;;;13.30;99.90;;;;;;5055244;28;20021;-66
2022/06/04 07:16:16;;;;;;;17.98;7.63;;;13.30;99.90;;;;;;5054292;28;20025;-68
2022/06/04 07:18:42;;;;;;;18.90;6.53;;;13.30;99.90;;;;;;5055143;28;20052;-68
2022/06/04 07:21:07;;;;;;;17.75;6.53;;;13.30;99.90;;;;;;5055080;28;20025;-68
2022/06/04 07:23:35;;;;;;;17.38;6.85;;;13.20;99.90;;;;;;5054915;28;20036;-66
2022/06/04 07:26:01;;;;;;;11.65;5.68;;;13.30;99.90;;;;;;5054672;28;20513;-66
2022/06/04 07:28:27;;;;;;;17.42;5.35;;;13.50;99.90;;;;;;5054903;28;20037;-68
2022/06/04 07:30:54;;;;;;;17.95;6.03;;;13.70;99.90;;;;;;5054886;28;20064;-68
2022/06/04 07:33:21;;;;;;;21.35;6.28;;;13.80;99.90;;;;;;5054281;28;20055;-67
2022/06/04 07:35:50;;;;;;;12.45;5.55;;;13.80;99.90;;;;;;5054585;28;20135;-68
2022/06/04 07:38:17;;;;;;;10.70;5.10;;;14.00;99.90;;;;;;5054428;28;20031;-68
2022/06/04 07:40:44;;;;;;;16.20;5.75;;;14.10;99.90;;;;;;5054694;28;20393;-67
2022/06/04 07:43:11;;;;;;;13.40;6.20;;;14.20;99.90;;;;;;5054420;28;20025;-67
2022/06/04 07:45:37;;;;;;;16.55;6.82;;;14.40;99.90;;;;;;5054644;28;20112;-68
2022/06/04 07:48:04;;;;;;;11.73;5.63;;;14.20;99.90;;;;;;5054310;28;20083;-68
2022/06/04 07:50:30;;;;;;;15.65;5.60;;;14.40;99.90;;;;;;5054212;28;20071;-68
2022/06/04 07:52:57;;;;;;;13.35;5.53;;;14.50;99.90;;;;;;5054041;28;20025;-68
2022/06/04 07:55:23;;;;;;;12.80;5.22;;;14.50;99.90;;;;;;5054591;28;20377;-67
2022/06/04 07:57:48;;;;;;;17.83;7.38;;;14.60;99.90;;;;;;5054355;28;20017;-66
2022/06/04 08:00:15;;;;;;;10.07;5.13;;;14.60;99.90;;;;;;5054075;28;20462;-68
2022/06/04 08:02:42;;;;;;;8.32;5.13;;;14.80;99.90;;;;;;5054091;28;20017;-68
2022/06/04 08:05:08;;;;;;;15.52;5.53;;;14.80;99.90;;;;;;5054345;28;20020;-68
2022/06/04 08:07:34;;;;;;;15.10;5.35;;;14.90;99.90;;;;;;5053968;28;20465;-68
2022/06/04 08:10:00;;;;;;;15.55;6.07;;;14.90;99.90;;;;;;5054010;28;20037;-68
2022/06/04 08:12:30;;;;;;;10.82;5.35;;;15.00;99.90;;;;;;5053753;28;20507;-68
2022/06/04 08:14:57;;;;;;;15.73;6.07;;;14.90;99.90;;;;;;5054229;28;20023;-68
2022/06/04 08:17:23;;;;;;;16.02;5.93;;;14.90;99.90;;;;;;5053765;28;20103;-68
2022/06/04 08:19:49;;;;;;;12.65;5.70;;;15.00;99.90;;;;;;5053748;28;20057;-67
2022/06/04 08:22:15;;;;;;;14.02;6.15;;;15.00;99.90;;;;;;5053547;28;20037;-68
2022/06/04 08:24:40;;;;;;;11.45;5.50;;;15.20;99.90;;;;;;5053955;28;20052;-68
2022/06/04 08:27:06;;;;;;;9.60;5.18;;;15.30;99.90;;;;;;5053618;28;20095;-68
2022/06/04 08:29:34;;;;;;;17.05;6.90;;;15.40;99.90;;;;;;5053216;28;20037;-68
2022/06/04 08:32:02;;;;;;;15.75;6.55;;;15.40;99.90;;;;;;5053764;28;20017;-68
2022/06/04 08:34:28;;;;;;;23.33;6.40;;;15.30;99.90;;;;;;5053569;28;20067;-68
2022/06/04 08:36:54;;;;;;;12.73;5.68;;;15.30;99.90;;;;;;5053546;28;20028;-66
2022/06/04 08:39:19;;;;;;;13.68;6.32;;;15.30;99.90;;;;;;5053817;28;20397;-68
2022/06/04 08:42:05;;;;;;;18.65;6.57;;;15.30;99.90;;;;;;5053562;28;20056;-69
2022/06/04 08:44:35;;;;;;;18.63;5.65;;;15.30;99.90;;;;;;5053870;28;20081;-68
2022/06/04 08:47:25;;;;;;;11.77;6.03;;;15.20;99.90;;;;;;5053384;28;20476;-67
2022/06/04 08:50:07;;;;;;;17.45;6.88;;;15.00;99.90;;;;;;5053314;28;20075;-67
2022/06/04 08:52:45;;;;;;;17.73;6.85;;;15.10;99.90;;;;;;5053267;28;20021;-67
2022/06/04 08:58:04;;;;;;;18.80;7.38;;;15.50;99.90;;;;;;5053375;28;20091;-67
2022/06/04 09:00:40;;;;;;;20.30;6.53;;;15.70;99.90;;;;;;5053149;28;20025;-67
2022/06/04 09:03:11;;;;;;;15.32;4.93;;;15.70;99.90;;;;;;5053348;28;20477;-68
2022/06/04 09:06:08;;;;;;;15.00;6.18;;;15.70;99.90;;;;;;5053267;28;20055;-68
2022/06/04 09:08:47;;;;;;;14.07;4.82;;;16.00;99.90;;;;;;5053365;28;20028;-68
2022/06/04 09:11:24;;;;;;;15.23;6.22;;;16.20;99.90;;;;;;5053466;28;20021;-67
2022/06/04 09:14:14;;;;;;;13.73;5.03;;;16.30;99.90;;;;;;5053322;28;20017;-68
2022/06/04 09:16:49;;;;;;;15.40;6.00;;;16.40;99.90;;;;;;5053043;28;20017;-68
2022/06/04 09:19:20;;;;;;;10.05;4.43;;;16.50;99.90;;;;;;5053085;28;20028;-68
2022/06/04 09:21:48;;;;;;;12.70;6.28;;;16.80;99.90;;;;;;5052925;28;20033;-68
2022/06/04 09:24:14;;;;;;;13.52;5.47;;;16.70;99.90;;;;;;5053242;28;20040;-67
2022/06/04 09:27:05;;;;;;;15.68;5.75;;;16.50;99.90;;;;;;5053290;28;20021;-67
2022/06/04 09:29:52;;;;;;;14.68;5.88;;;16.60;99.90;;;;;;5053207;28;20029;-67
2022/06/04 09:32:45;;;;;;;9.50;4.80;;;16.70;99.90;;;;;;5052973;28;20465;-67
2022/06/04 09:35:21;;;;;;;11.35;4.47;;;16.50;99.90;;;;;;5052947;28;20025;-66
2022/06/04 09:37:48;;;;;;;15.93;4.80;;;16.50;99.90;;;;;;5052911;28;20021;-67
2022/06/04 09:40:27;;;;;;;15.98;5.40;;;16.40;99.90;;;;;;5054845;28;20411;-67
2022/06/04 09:43:12;;;;;;;9.30;4.13;;;16.40;99.90;;;;;;5056575;28;20017;-67
2022/06/04 09:45:38;;;;;;;15.27;4.35;;;16.70;99.90;;;;;;5057008;28;20538;-66
2022/06/04 09:48:22;;;;;;;16.08;5.10;;;17.20;99.90;;;;;;5056578;28;20112;-66
2022/06/04 09:50:57;;;;;;;15.57;4.82;;;17.40;99.90;;;;;;5056837;28;20036;-66
2022/06/04 09:53:29;;;;;;;9.65;4.90;;;17.40;99.90;;;;;;5056381;28;20021;-67
2022/06/04 09:56:05;;;;;;;17.88;4.40;;;17.60;99.90;;;;;;5057427;28;20036;-67
2022/06/04 09:58:37;;;;;;;13.05;4.97;;;17.50;99.90;;;;;;5056427;28;20063;-67
2022/06/04 10:01:14;;;;;;;15.35;4.50;;;17.10;99.90;;;;;;5056251;28;20393;-67
2022/06/04 10:03:40;;;;;;;14.30;4.43;;;17.10;99.90;;;;;;5056322;28;20483;-65
2022/06/04 10:06:16;;;;;;;11.50;4.10;;;17.10;99.90;;;;;;5056567;28;20036;-66
2022/06/04 10:11:54;;;;;;;10.38;3.65;;;17.10;99.90;;;;;;5056528;28;20036;-66
2022/06/04 10:14:56;;;;;;;14.50;5.15;;;17.70;99.90;;;;;;5056763;28;20457;-66
2022/06/04 10:17:34;;;;;;;12.88;4.40;;;18.10;99.90;;;;;;5056123;28;20051;-66
2022/06/04 10:19:59;;;;;;;9.25;4.15;;;18.30;99.90;;;;;;5056161;28;20033;-66
2022/06/04 10:22:25;;;;;;;13.65;5.22;;;18.10;99.90;;;;;;5055863;28;20037;-66
2022/06/04 10:25:03;;;;;;;6.75;3.70;;;18.20;99.90;;;;;;5056173;28;20075;-66
2022/06/04 10:27:43;;;;;;;10.20;4.25;;;18.20;99.90;;;;;;5055913;28;20054;-66
2022/06/04 10:30:09;;;;;;;16.40;4.22;;;18.60;99.90;;;;;;5056115;28;20029;-66
2022/06/04 10:33:07;;;;;;;7.53;3.65;;;18.20;99.90;;;;;;5055718;28;20487;-67
2022/06/04 10:35:50;;;;;;;12.15;4.18;;;18.10;99.90;;;;;;5044210;28;20060;-67
2022/06/04 10:38:54;;;;;;;9.05;4.32;;;18.70;99.90;;;;;;5056025;28;20021;-66
2022/06/04 10:41:26;;;;;;;7.50;4.32;;;19.60;99.90;;;;;;5055888;28;20053;-66
2022/06/04 10:44:21;;;;;;;16.60;4.85;;;20.00;99.90;;;;;;5056050;28;20056;-67
2022/06/04 10:46:55;;;;;;;10.18;3.65;;;19.80;99.90;;;;;;5001299;28;20561;-67
2022/06/04 10:49:33;;;;;;;10.90;3.92;;;20.20;99.90;;;;;;5055695;28;20033;-66
2022/06/04 10:52:31;;;;;;;11.05;4.18;;;20.00;99.90;;;;;;5054624;28;20025;-66
2022/06/04 10:55:15;;;;;;;12.73;3.78;;;19.30;99.90;;;;;;5055843;28;20060;-66
2022/06/04 10:58:01;;;;;;;5.53;3.00;;;19.00;99.90;;;;;;5055804;28;20025;-66
2022/06/04 11:00:31;;;;;;;7.00;3.22;;;19.30;99.90;;;;;;5056144;28;20430;-67
2022/06/04 11:03:43;;;;;;;12.32;3.88;;;20.30;99.90;;;;;;5055456;28;20373;-66
2022/06/04 11:06:26;;;;;;;12.82;3.83;;;20.80;99.90;;;;;;5033794;28;20037;-66
2022/06/04 11:09:23;;;;;;;8.50;4.20;;;20.20;99.90;;;;;;5055072;28;20393;-66
2022/06/04 11:11:56;;;;;;;10.15;4.03;;;20.10;99.90;;;;;;5050382;28;20029;-66
2022/06/04 11:14:34;;;;;;;10.95;3.90;;;20.20;99.90;;;;;;5055226;28;20033;-66
2022/06/04 11:17:44;;;;;;;12.45;4.07;;;19.80;99.90;;;;;;5054860;28;20040;-66
2022/06/04 11:20:10;;;;;;;8.32;4.30;;;19.40;99.90;;;;;;5021594;28;20040;-67
2022/06/04 11:22:38;;;;;;;11.57;4.40;;;19.00;99.90;;;;;;5054602;28;20033;-67
2022/06/04 11:25:19;;;;;;;9.85;4.18;;;19.60;99.90;;;;;;5055032;28;20036;-67
2022/06/04 11:27:49;;;;;;;12.13;4.55;;;20.30;99.90;;;;;;5053367;28;20477;-67
2022/06/04 11:30:21;;;;;;;9.05;4.20;;;20.40;99.90;;;;;;5054979;28;20033;-66
2022/06/04 11:33:01;;;;;;;8.77;3.92;;;20.40;99.90;;;;;;5055536;28;20028;-66
2022/06/04 11:35:53;;;;;;;9.52;4.35;;;20.80;99.90;;;;;;5054760;28;20017;-67
2022/06/04 11:38:33;;;;;;;10.85;3.85;;;21.30;99.90;;;;;;5054554;28;20021;-67
2022/06/04 11:41:08;;;;;;;7.20;3.55;;;21.50;99.90;;;;;;5054758;28;20036;-67
2022/06/04 11:43:53;;;;;;;10.05;3.70;;;21.80;99.90;;;;;;5054655;28;20469;-67
2022/06/04 11:46:42;;;;;;;17.25;3.97;;;21.50;99.90;;;;;;5054722;28;20025;-67
2022/06/04 11:49:32;;;;;;;9.93;3.22;;;21.00;99.90;;;;;;5054510;28;20031;-66
2022/06/04 11:52:22;;;;;;;10.73;3.75;;;21.00;99.90;;;;;;5054219;28;20537;-66
2022/06/04 11:55:05;;;;;;;9.25;3.85;;;21.10;99.90;;;;;;5054204;28;20358;-66
2022/06/04 11:57:52;;;;;;;9.43;3.50;;;21.10;99.90;;;;;;5054466;28;20017;-66
2022/06/04 12:00:26;;;;;;;6.32;3.75;;;21.50;99.90;;;;;;5054472;28;20272;-66
2022/06/04 12:03:12;;;;;;;8.77;3.08;;;22.30;99.90;;;;;;5053998;28;20024;-66
2022/06/04 12:05:46;;;;;;;8.55;2.92;;;22.70;99.90;;;;;;5053727;28;20041;-67
2022/06/04 12:08:17;;;;;;;9.60;3.67;;;23.20;99.90;;;;;;5054017;28;20029;-66
2022/06/04 12:11:04;;;;;;;7.40;3.22;;;24.00;99.90;;;;;;5054138;28;20044;-66
2022/06/04 12:13:45;;;;;;;11.02;3.47;;;24.10;99.90;;;;;;5054203;28;20052;-68
2022/06/04 12:16:21;;;;;;;9.68;3.65;;;23.90;99.90;;;;;;5053979;28;20021;-66
2022/06/04 12:25:36;;;;;;;;;;;22.80;99.90;;;;;;5033372;28;20563;-69
2022/06/04 12:28:18;;;;;;;7.05;3.35;;;22.70;99.90;;;;;;5033820;28;20331;-69
2022/06/04 12:30:46;;;;;;;8.38;3.30;;;22.90;99.90;;;;;;5014098;28;20022;-70
2022/06/04 12:33:25;;;;;;;7.00;3.80;;;23.20;99.90;;;;;;5014288;28;20023;-69
2022/06/04 12:35:59;;;;;;;11.38;4.07;;;23.40;99.90;;;;;;5014337;28;20029;-69
2022/06/04 12:38:26;;;;;;;7.70;4.07;;;23.70;99.90;;;;;;5014041;28;20029;-69
2022/06/04 12:41:22;;;;;;;6.70;2.95;;;23.10;99.90;;;;;;5031393;28;20104;-69
2022/06/04 12:43:57;;;;;;;9.43;4.10;;;23.20;99.90;;;;;;5031799;28;20088;-70
2022/06/04 12:46:22;;;;;;;10.98;3.63;;;23.50;99.90;;;;;;5033645;28;20034;-70
2022/06/04 12:49:06;;;;;;;9.20;3.28;;;24.10;99.90;;;;;;5033712;28;20432;-70
2022/06/04 12:51:56;;;;;;;8.65;3.15;;;24.30;99.90;;;;;;5033636;28;20367;-70
2022/06/04 12:54:51;;;;;;;7.38;3.65;;;24.40;99.90;;;;;;5033535;28;20021;-70
2022/06/04 12:57:28;;;;;;;8.80;2.97;;;24.90;99.90;;;;;;5033925;28;20097;-70
2022/06/04 13:00:18;;;;;;;7.88;3.13;;;24.60;99.90;;;;;;5033524;28;20030;-69
2022/06/04 13:03:08;;;;;;;6.75;2.90;;;24.80;99.90;;;;;;5033629;28;20025;-70
2022/06/04 13:05:57;;;;;;;7.38;2.92;;;25.90;99.90;;;;;;5033245;28;20022;-71
2022/06/04 13:09:03;;;;;;;6.90;3.08;;;26.40;99.90;;;;;;5034053;28;20026;-68
2022/06/04 13:11:43;;;;;;;6.13;2.92;;;26.00;98.40;;;;;;5034043;28;20033;-69
2022/06/04 13:14:33;;;;;;;12.13;3.35;;;24.90;99.90;;;;;;5033727;28;20477;-69
2022/06/04 13:17:30;;;;;;;9.50;3.47;;;24.80;99.90;;;;;;5037415;28;20061;-69
2022/06/04 13:20:24;;;;;;;7.85;3.45;;;24.80;99.00;;;;;;5030343;28;20037;-69
2022/06/04 13:22:57;;;;;;;6.70;2.97;;;25.00;99.90;;;;;;5037486;28;20053;-70
2022/06/04 13:25:41;;;;;;;11.60;3.03;;;25.80;99.90;;;;;;5037343;28;20032;-70
2022/06/04 13:28:22;;;;;;;;;;;26.20;99.90;;;;;;5037580;28;20022;-69
2022/06/04 13:30:51;;;;;;;10.48;3.20;;;26.20;98.50;;;;;;5044175;28;19959;-69
2022/06/04 13:33:16;;;;;;;10.43;3.70;;;25.60;99.00;;;;;;5037090;28;20104;-70